sensor_id;sensor_type;location;lat;lon;timestamp;pressure;altitude;pressure_sealevel;temperature;humidity
48926;BME280;39838;59.938;30.642;2023-08-08T00:00:36;99530.09;;;23.38;68.22
48926;BME280;39838;59.938;30.642;2023-08-08T00:03:04;99532.81;;;23.36;68.33
48926;BME280;39838;59.938;30.642;2023-08-08T00:05:31;99530.28;;;23.35;68.77
48926;BME280;39838;59.938;30.642;2023-08-08T00:07:59;99534.75;;;23.34;68.33
48926;BME280;39838;59.938;30.642;2023-08-08T00:10:27;99527.97;;;23.30;68.66
48926;BME280;39838;59.938;30.642;2023-08-08T00:12:54;99531.53;;;23.29;68.72
48926;BME280;39838;59.938;30.642;2023-08-08T00:15:22;99531.78;;;23.26;68.84
48926;BME280;39838;59.938;30.642;2023-08-08T00:17:49;99526.78;;;23.22;68.95
48926;BME280;39838;59.938;30.642;2023-08-08T00:20:16;99529.41;;;23.22;68.97
48926;BME280;39838;59.938;30.642;2023-08-08T00:22:43;99534.09;;;23.18;69.32
48926;BME280;39838;59.938;30.642;2023-08-08T00:25:10;99526.22;;;23.16;69.15
48926;BME280;39838;59.938;30.642;2023-08-08T00:27:39;99523.69;;;23.15;69.66
48926;BME280;39838;59.938;30.642;2023-08-08T00:30:10;99521.03;;;23.15;69.56
48926;BME280;39838;59.938;30.642;2023-08-08T00:32:38;99524.75;;;23.12;69.46
48926;BME280;39838;59.938;30.642;2023-08-08T00:35:05;99522.41;;;23.08;69.66
48926;BME280;39838;59.938;30.642;2023-08-08T00:37:33;99525.06;;;23.08;69.47
48926;BME280;39838;59.938;30.642;2023-08-08T00:40:00;99519.03;;;23.06;69.62
48926;BME280;39838;59.938;30.642;2023-08-08T00:42:29;99520.09;;;23.03;69.72
48926;BME280;39838;59.938;30.642;2023-08-08T00:44:58;99515.94;;;22.99;69.94
48926;BME280;39838;59.938;30.642;2023-08-08T00:47:32;99518.56;;;22.99;70.11
48926;BME280;39838;59.938;30.642;2023-08-08T00:50:01;99526.53;;;22.99;70.13
48926;BME280;39838;59.938;30.642;2023-08-08T00:52:29;99516.03;;;22.98;70.13
48926;BME280;39838;59.938;30.642;2023-08-08T00:54:57;99512.63;;;22.96;69.93
48926;BME280;39838;59.938;30.642;2023-08-08T00:57:26;99513.69;;;22.93;70.12
48926;BME280;39838;59.938;30.642;2023-08-08T00:59:53;99518.97;;;22.93;70.14
48926;BME280;39838;59.938;30.642;2023-08-08T01:02:22;99514.75;;;22.91;70.32
48926;BME280;39838;59.938;30.642;2023-08-08T01:04:49;99513.97;;;22.88;70.27
48926;BME280;39838;59.938;30.642;2023-08-08T01:07:23;99505.50;;;22.83;70.32
48926;BME280;39838;59.938;30.642;2023-08-08T01:09:56;99509.81;;;22.84;70.58
48926;BME280;39838;59.938;30.642;2023-08-08T01:12:27;99515.91;;;22.86;70.43
48926;BME280;39838;59.938;30.642;2023-08-08T01:14:55;99509.75;;;22.86;70.27
48926;BME280;39838;59.938;30.642;2023-08-08T01:17:25;99490.63;;;22.81;70.64
48926;BME280;39838;59.938;30.642;2023-08-08T01:19:53;99502.00;;;22.83;70.19
48926;BME280;39838;59.938;30.642;2023-08-08T01:22:24;99502.06;;;22.81;70.06
48926;BME280;39838;59.938;30.642;2023-08-08T01:24:54;99488.09;;;22.79;70.25
48926;BME280;39838;59.938;30.642;2023-08-08T01:27:22;99486.28;;;22.80;70.28
48926;BME280;39838;59.938;30.642;2023-08-08T01:29:49;99480.16;;;22.79;70.19
48926;BME280;39838;59.938;30.642;2023-08-08T01:32:17;99467.66;;;22.81;70.04
48926;BME280;39838;59.938;30.642;2023-08-08T01:34:44;99463.19;;;22.82;69.99
48926;BME280;39838;59.938;30.642;2023-08-08T01:37:14;99439.44;;;22.68;69.89
48926;BME280;39838;59.938;30.642;2023-08-08T01:39:46;99474.44;;;22.85;69.85
48926;BME280;39838;59.938;30.642;2023-08-08T01:42:15;99467.47;;;22.84;69.46
48926;BME280;39838;59.938;30.642;2023-08-08T01:44:44;99469.91;;;22.87;69.41
48926;BME280;39838;59.938;30.642;2023-08-08T01:47:11;99470.88;;;22.86;69.52
48926;BME280;39838;59.938;30.642;2023-08-08T01:49:38;99469.91;;;22.87;69.67
48926;BME280;39838;59.938;30.642;2023-08-08T01:52:06;99469.06;;;22.87;69.61
48926;BME280;39838;59.938;30.642;2023-08-08T01:54:33;99469.16;;;22.85;69.72
48926;BME280;39838;59.938;30.642;2023-08-08T01:57:00;99466.44;;;22.87;69.58
48926;BME280;39838;59.938;30.642;2023-08-08T01:59:29;99455.84;;;22.87;69.50
48926;BME280;39838;59.938;30.642;2023-08-08T02:01:56;99461.13;;;22.87;69.73
48926;BME280;39838;59.938;30.642;2023-08-08T02:04:23;99446.19;;;22.86;69.65
48926;BME280;39838;59.938;30.642;2023-08-08T02:06:50;99452.41;;;22.85;69.68
48926;BME280;39838;59.938;30.642;2023-08-08T02:09:17;99445.31;;;22.85;69.45
48926;BME280;39838;59.938;30.642;2023-08-08T02:11:44;99445.44;;;22.84;69.41
48926;BME280;39838;59.938;30.642;2023-08-08T02:14:12;99440.97;;;22.84;69.59
48926;BME280;39838;59.938;30.642;2023-08-08T02:16:40;99437.56;;;22.82;69.33
48926;BME280;39838;59.938;30.642;2023-08-08T02:19:08;99442.66;;;22.85;69.40
48926;BME280;39838;59.938;30.642;2023-08-08T02:21:35;99434.66;;;22.87;69.34
48926;BME280;39838;59.938;30.642;2023-08-08T02:24:03;99432.53;;;22.92;68.99
48926;BME280;39838;59.938;30.642;2023-08-08T02:26:30;99442.91;;;22.95;69.05
48926;BME280;39838;59.938;30.642;2023-08-08T02:28:57;99441.03;;;22.97;68.98
48926;BME280;39838;59.938;30.642;2023-08-08T02:31:24;99426.84;;;22.98;68.76
48926;BME280;39838;59.938;30.642;2023-08-08T02:33:53;99430.09;;;23.02;68.44
48926;BME280;39838;59.938;30.642;2023-08-08T02:36:20;99435.09;;;23.06;68.38
48926;BME280;39838;59.938;30.642;2023-08-08T02:38:48;99424.09;;;23.12;67.97
48926;BME280;39838;59.938;30.642;2023-08-08T02:41:19;99416.75;;;23.16;68.09
48926;BME280;39838;59.938;30.642;2023-08-08T02:43:47;99416.44;;;23.21;68.09
48926;BME280;39838;59.938;30.642;2023-08-08T02:46:14;99414.34;;;23.26;67.64
48926;BME280;39838;59.938;30.642;2023-08-08T02:48:41;99417.59;;;23.29;67.38
48926;BME280;39838;59.938;30.642;2023-08-08T02:51:10;99418.38;;;23.31;67.35
48926;BME280;39838;59.938;30.642;2023-08-08T02:53:37;99418.13;;;23.34;67.27
48926;BME280;39838;59.938;30.642;2023-08-08T02:56:04;99411.16;;;23.33;67.61
48926;BME280;39838;59.938;30.642;2023-08-08T02:58:31;99411.25;;;23.32;67.36
48926;BME280;39838;59.938;30.642;2023-08-08T03:00:58;99414.97;;;23.29;67.36
48926;BME280;39838;59.938;30.642;2023-08-08T03:03:26;99415.91;;;23.28;67.62
48926;BME280;39838;59.938;30.642;2023-08-08T03:05:53;99428.31;;;23.28;68.03
48926;BME280;39838;59.938;30.642;2023-08-08T03:08:22;99420.59;;;23.25;68.04
48926;BME280;39838;59.938;30.642;2023-08-08T03:10:49;99418.78;;;23.25;68.01
48926;BME280;39838;59.938;30.642;2023-08-08T03:13:16;99431.09;;;23.26;67.64
48926;BME280;39838;59.938;30.642;2023-08-08T03:15:45;99425.78;;;23.26;67.78
48926;BME280;39838;59.938;30.642;2023-08-08T03:18:12;99417.84;;;23.26;67.86
48926;BME280;39838;59.938;30.642;2023-08-08T03:20:39;99423.88;;;23.28;67.79
48926;BME280;39838;59.938;30.642;2023-08-08T03:23:07;99417.59;;;23.29;67.68
48926;BME280;39838;59.938;30.642;2023-08-08T03:25:35;99421.09;;;23.30;67.50
48926;BME280;39838;59.938;30.642;2023-08-08T03:28:03;99420.19;;;23.31;67.60
48926;BME280;39838;59.938;30.642;2023-08-08T03:30:30;99427.91;;;23.34;67.90
48926;BME280;39838;59.938;30.642;2023-08-08T03:32:57;99428.63;;;23.36;67.72
48926;BME280;39838;59.938;30.642;2023-08-08T03:35:24;99436.28;;;23.40;67.52
48926;BME280;39838;59.938;30.642;2023-08-08T03:37:52;99426.41;;;23.42;67.26
48926;BME280;39838;59.938;30.642;2023-08-08T03:40:19;99419.22;;;23.45;67.39
48926;BME280;39838;59.938;30.642;2023-08-08T03:42:48;99427.16;;;23.45;67.11
48926;BME280;39838;59.938;30.642;2023-08-08T03:45:15;99419.22;;;23.45;67.26
48926;BME280;39838;59.938;30.642;2023-08-08T03:47:42;99425.56;;;23.42;67.13
48926;BME280;39838;59.938;30.642;2023-08-08T03:50:10;99432.66;;;23.41;67.32
48926;BME280;39838;59.938;30.642;2023-08-08T03:52:37;99423.03;;;23.40;67.08
48926;BME280;39838;59.938;30.642;2023-08-08T03:55:05;99418.44;;;23.42;67.29
48926;BME280;39838;59.938;30.642;2023-08-08T03:57:32;99428.00;;;23.45;66.85
48926;BME280;39838;59.938;30.642;2023-08-08T04:00:01;99425.97;;;23.49;67.06
48926;BME280;39838;59.938;30.642;2023-08-08T04:02:31;99432.75;;;23.53;67.18
48926;BME280;39838;59.938;30.642;2023-08-08T04:04:59;99427.78;;;23.61;66.85
48926;BME280;39838;59.938;30.642;2023-08-08T04:07:26;99423.75;;;23.68;66.65
48926;BME280;39838;59.938;30.642;2023-08-08T04:09:53;99415.38;;;23.74;66.36
48926;BME280;39838;59.938;30.642;2023-08-08T04:12:20;99416.94;;;23.77;66.46
48926;BME280;39838;59.938;30.642;2023-08-08T04:14:47;99413.25;;;23.79;65.88
48926;BME280;39838;59.938;30.642;2023-08-08T04:17:16;99417.34;;;23.83;65.73
48926;BME280;39838;59.938;30.642;2023-08-08T04:19:43;99413.97;;;23.81;65.61
48926;BME280;39838;59.938;30.642;2023-08-08T04:22:10;99418.19;;;23.84;65.96
48926;BME280;39838;59.938;30.642;2023-08-08T04:24:37;99425.94;;;23.87;65.56
48926;BME280;39838;59.938;30.642;2023-08-08T04:27:04;99412.38;;;23.91;65.38
48926;BME280;39838;59.938;30.642;2023-08-08T04:29:32;99414.53;;;23.97;65.39
48926;BME280;39838;59.938;30.642;2023-08-08T04:31:59;99410.47;;;24.05;64.54
48926;BME280;39838;59.938;30.642;2023-08-08T04:34:27;99413.91;;;24.07;64.34
48926;BME280;39838;59.938;30.642;2023-08-08T04:36:54;99420.78;;;24.09;64.17
48926;BME280;39838;59.938;30.642;2023-08-08T04:39:22;99429.56;;;24.10;64.39
48926;BME280;39838;59.938;30.642;2023-08-08T04:41:49;99433.19;;;24.09;64.30
48926;BME280;39838;59.938;30.642;2023-08-08T04:44:16;99442.63;;;24.13;63.93
48926;BME280;39838;59.938;30.642;2023-08-08T04:46:43;99447.94;;;24.13;64.04
48926;BME280;39838;59.938;30.642;2023-08-08T04:49:10;99452.28;;;24.14;63.89
48926;BME280;39838;59.938;30.642;2023-08-08T04:51:39;99455.66;;;24.16;63.86
48926;BME280;39838;59.938;30.642;2023-08-08T04:54:06;99461.25;;;24.24;63.75
48926;BME280;39838;59.938;30.642;2023-08-08T04:56:33;99466.25;;;24.29;63.33
48926;BME280;39838;59.938;30.642;2023-08-08T04:59:00;99453.41;;;24.35;63.32
48926;BME280;39838;59.938;30.642;2023-08-08T05:01:27;99448.81;;;24.37;63.15
48926;BME280;39838;59.938;30.642;2023-08-08T05:03:54;99432.16;;;24.35;62.81
48926;BME280;39838;59.938;30.642;2023-08-08T05:06:21;99431.44;;;24.33;63.18
48926;BME280;39838;59.938;30.642;2023-08-08T05:08:51;99435.53;;;24.37;62.70
48926;BME280;39838;59.938;30.642;2023-08-08T05:11:18;99437.63;;;24.45;62.72
48926;BME280;39838;59.938;30.642;2023-08-08T05:13:45;99449.16;;;24.57;62.51
48926;BME280;39838;59.938;30.642;2023-08-08T05:16:13;99470.56;;;24.66;62.27
48926;BME280;39838;59.938;30.642;2023-08-08T05:18:40;99484.91;;;24.64;61.97
48926;BME280;39838;59.938;30.642;2023-08-08T05:21:09;99466.09;;;24.43;62.44
48926;BME280;39838;59.938;30.642;2023-08-08T05:23:37;99465.28;;;24.30;62.94
48926;BME280;39838;59.938;30.642;2023-08-08T05:26:05;99499.81;;;24.17;63.95
48926;BME280;39838;59.938;30.642;2023-08-08T05:28:32;99494.44;;;24.06;65.12
48926;BME280;39838;59.938;30.642;2023-08-08T05:31:00;99506.66;;;23.83;66.82
48926;BME280;39838;59.938;30.642;2023-08-08T05:33:27;99517.38;;;23.56;68.58
48926;BME280;39838;59.938;30.642;2023-08-08T05:35:54;99522.44;;;23.33;69.98
48926;BME280;39838;59.938;30.642;2023-08-08T05:38:21;99528.97;;;23.15;71.02
48926;BME280;39838;59.938;30.642;2023-08-08T05:40:48;99517.84;;;22.97;72.20
48926;BME280;39838;59.938;30.642;2023-08-08T05:43:17;99511.06;;;22.79;73.57
48926;BME280;39838;59.938;30.642;2023-08-08T05:45:45;99528.06;;;22.62;74.07
48926;BME280;39838;59.938;30.642;2023-08-08T05:48:12;99539.44;;;22.50;75.04
48926;BME280;39838;59.938;30.642;2023-08-08T05:50:40;99537.97;;;22.31;76.16
48926;BME280;39838;59.938;30.642;2023-08-08T05:53:07;99541.75;;;22.27;76.77
48926;BME280;39838;59.938;30.642;2023-08-08T05:55:34;99525.50;;;22.05;77.21
48926;BME280;39838;59.938;30.642;2023-08-08T05:58:02;99554.50;;;22.06;77.58
48926;BME280;39838;59.938;30.642;2023-08-08T06:00:31;99557.91;;;21.94;79.00
48926;BME280;39838;59.938;30.642;2023-08-08T06:02:58;99550.91;;;21.79;79.76
48926;BME280;39838;59.938;30.642;2023-08-08T06:05:26;99555.16;;;21.67;80.45
48926;BME280;39838;59.938;30.642;2023-08-08T06:07:54;99554.41;;;21.65;81.04
48926;BME280;39838;59.938;30.642;2023-08-08T06:10:22;99556.09;;;21.66;81.30
48926;BME280;39838;59.938;30.642;2023-08-08T06:12:50;99537.53;;;21.68;81.69
48926;BME280;39838;59.938;30.642;2023-08-08T06:15:18;99541.88;;;21.83;81.90
48926;BME280;39838;59.938;30.642;2023-08-08T06:17:46;99534.78;;;21.98;81.71
48926;BME280;39838;59.938;30.642;2023-08-08T06:20:14;99533.25;;;22.08;81.43
48926;BME280;39838;59.938;30.642;2023-08-08T06:22:41;99545.34;;;22.26;81.15
48926;BME280;39838;59.938;30.642;2023-08-08T06:25:09;99552.97;;;22.45;80.66
48926;BME280;39838;59.938;30.642;2023-08-08T06:27:36;99554.78;;;22.72;79.77
48926;BME280;39838;59.938;30.642;2023-08-08T06:30:05;99561.25;;;22.95;79.09
48926;BME280;39838;59.938;30.642;2023-08-08T06:32:31;99559.50;;;23.08;78.09
48926;BME280;39838;59.938;30.642;2023-08-08T06:35:00;99575.94;;;23.13;77.63
48926;BME280;39838;59.938;30.642;2023-08-08T06:37:27;99576.78;;;23.13;77.32
48926;BME280;39838;59.938;30.642;2023-08-08T06:39:55;99576.94;;;23.25;77.27
48926;BME280;39838;59.938;30.642;2023-08-08T06:42:22;99585.66;;;23.39;77.01
48926;BME280;39838;59.938;30.642;2023-08-08T06:44:49;99580.38;;;23.52;76.85
48926;BME280;39838;59.938;30.642;2023-08-08T06:47:16;99582.50;;;23.60;76.10
48926;BME280;39838;59.938;30.642;2023-08-08T06:49:43;99588.47;;;23.76;75.68
48926;BME280;39838;59.938;30.642;2023-08-08T06:52:12;99586.22;;;23.83;75.68
48926;BME280;39838;59.938;30.642;2023-08-08T06:54:39;99594.31;;;23.81;74.67
48926;BME280;39838;59.938;30.642;2023-08-08T06:57:06;99586.13;;;23.84;74.78
48926;BME280;39838;59.938;30.642;2023-08-08T06:59:33;99579.13;;;23.83;74.19
48926;BME280;39838;59.938;30.642;2023-08-08T07:02:01;99597.81;;;23.94;73.80
48926;BME280;39838;59.938;30.642;2023-08-08T07:04:28;99606.06;;;23.90;74.02
48926;BME280;39838;59.938;30.642;2023-08-08T07:06:55;99601.53;;;23.92;74.11
48926;BME280;39838;59.938;30.642;2023-08-08T07:09:24;99617.09;;;23.96;73.68
48926;BME280;39838;59.938;30.642;2023-08-08T07:11:51;99625.28;;;24.06;73.15
48926;BME280;39838;59.938;30.642;2023-08-08T07:14:18;99624.63;;;24.03;72.52
48926;BME280;39838;59.938;30.642;2023-08-08T07:16:45;99611.78;;;23.84;71.60
48926;BME280;39838;59.938;30.642;2023-08-08T07:19:14;99628.25;;;23.76;72.28
48926;BME280;39838;59.938;30.642;2023-08-08T07:21:41;99626.09;;;23.68;72.07
48926;BME280;39838;59.938;30.642;2023-08-08T07:24:08;99633.22;;;23.68;72.17
48926;BME280;39838;59.938;30.642;2023-08-08T07:26:37;99640.22;;;23.69;71.81
48926;BME280;39838;59.938;30.642;2023-08-08T07:29:05;99643.97;;;23.79;72.10
48926;BME280;39838;59.938;30.642;2023-08-08T07:31:32;99643.19;;;23.90;71.41
48926;BME280;39838;59.938;30.642;2023-08-08T07:33:59;99637.91;;;24.03;70.26
48926;BME280;39838;59.938;30.642;2023-08-08T07:36:26;99648.75;;;24.25;70.02
48926;BME280;39838;59.938;30.642;2023-08-08T07:38:53;99641.97;;;24.34;69.58
48926;BME280;39838;59.938;30.642;2023-08-08T07:41:25;99641.13;;;24.33;68.93
48926;BME280;39838;59.938;30.642;2023-08-08T07:43:53;99630.91;;;24.40;68.40
48926;BME280;39838;59.938;30.642;2023-08-08T07:46:20;99630.38;;;24.47;68.34
48926;BME280;39838;59.938;30.642;2023-08-08T07:48:48;99632.78;;;24.50;68.53
48926;BME280;39838;59.938;30.642;2023-08-08T07:51:15;99631.75;;;24.53;67.85
48926;BME280;39838;59.938;30.642;2023-08-08T07:53:42;99634.81;;;24.60;66.58
48926;BME280;39838;59.938;30.642;2023-08-08T07:56:09;99637.56;;;24.58;66.93
48926;BME280;39838;59.938;30.642;2023-08-08T07:58:37;99634.91;;;24.58;66.97
48926;BME280;39838;59.938;30.642;2023-08-08T08:01:05;99636.81;;;24.56;66.70
48926;BME280;39838;59.938;30.642;2023-08-08T08:03:32;99629.63;;;24.45;66.72
48926;BME280;39838;59.938;30.642;2023-08-08T08:06:00;99642.97;;;24.31;66.39
48926;BME280;39838;59.938;30.642;2023-08-08T08:08:27;99629.81;;;24.17;66.70
48926;BME280;39838;59.938;30.642;2023-08-08T08:10:54;99644.28;;;24.26;66.71
48926;BME280;39838;59.938;30.642;2023-08-08T08:13:22;99643.00;;;24.44;66.42
48926;BME280;39838;59.938;30.642;2023-08-08T08:15:49;99644.88;;;24.67;66.35
48926;BME280;39838;59.938;30.642;2023-08-08T08:18:17;99652.81;;;24.80;64.62
48926;BME280;39838;59.938;30.642;2023-08-08T08:20:46;99664.59;;;24.76;63.50
48926;BME280;39838;59.938;30.642;2023-08-08T08:23:13;99656.41;;;24.79;62.95
48926;BME280;39838;59.938;30.642;2023-08-08T08:25:40;99652.06;;;24.78;62.95
48926;BME280;39838;59.938;30.642;2023-08-08T08:28:07;99659.03;;;24.92;63.05
48926;BME280;39838;59.938;30.642;2023-08-08T08:30:34;99654.47;;;25.07;62.15
48926;BME280;39838;59.938;30.642;2023-08-08T08:33:02;99656.63;;;25.13;60.62
48926;BME280;39838;59.938;30.642;2023-08-08T08:35:35;99654.09;;;25.11;61.00
48926;BME280;39838;59.938;30.642;2023-08-08T08:38:02;99674.06;;;25.17;60.29
48926;BME280;39838;59.938;30.642;2023-08-08T08:40:30;99681.72;;;25.21;59.67
48926;BME280;39838;59.938;30.642;2023-08-08T08:43:00;99687.63;;;25.25;59.61
48926;BME280;39838;59.938;30.642;2023-08-08T08:45:29;99672.13;;;25.19;59.30
48926;BME280;39838;59.938;30.642;2023-08-08T08:47:57;99693.72;;;25.27;58.71
48926;BME280;39838;59.938;30.642;2023-08-08T08:50:27;99677.56;;;25.17;58.61
48926;BME280;39838;59.938;30.642;2023-08-08T08:52:56;99698.78;;;25.30;58.60
48926;BME280;39838;59.938;30.642;2023-08-08T08:55:25;99703.94;;;25.44;58.55
48926;BME280;39838;59.938;30.642;2023-08-08T08:57:53;99717.88;;;25.59;58.58
48926;BME280;39838;59.938;30.642;2023-08-08T09:00:21;99714.88;;;25.64;58.34
48926;BME280;39838;59.938;30.642;2023-08-08T09:02:51;99723.91;;;25.74;58.60
48926;BME280;39838;59.938;30.642;2023-08-08T09:05:21;99730.09;;;25.74;58.39
48926;BME280;39838;59.938;30.642;2023-08-08T09:07:48;99731.88;;;25.74;57.97
48926;BME280;39838;59.938;30.642;2023-08-08T09:10:18;99731.81;;;25.63;57.48
48926;BME280;39838;59.938;30.642;2023-08-08T09:12:46;99744.31;;;25.49;57.20
48926;BME280;39838;59.938;30.642;2023-08-08T09:15:14;99739.50;;;25.30;57.06
48926;BME280;39838;59.938;30.642;2023-08-08T09:17:41;99756.94;;;25.35;57.03
48926;BME280;39838;59.938;30.642;2023-08-08T09:20:11;99760.66;;;25.32;55.89
48926;BME280;39838;59.938;30.642;2023-08-08T09:22:38;99756.94;;;25.35;55.33
48926;BME280;39838;59.938;30.642;2023-08-08T09:25:06;99758.59;;;25.12;54.95
48926;BME280;39838;59.938;30.642;2023-08-08T09:27:35;99774.09;;;24.92;55.57
48926;BME280;39838;59.938;30.642;2023-08-08T09:30:03;99784.00;;;24.90;56.42
48926;BME280;39838;59.938;30.642;2023-08-08T09:32:32;99779.66;;;24.89;56.02
48926;BME280;39838;59.938;30.642;2023-08-08T09:34:59;99783.28;;;24.75;56.15
48926;BME280;39838;59.938;30.642;2023-08-08T09:37:28;99775.75;;;24.57;56.58
48926;BME280;39838;59.938;30.642;2023-08-08T09:39:58;99783.19;;;24.39;57.22
48926;BME280;39838;59.938;30.642;2023-08-08T09:42:26;99778.06;;;24.36;57.18
48926;BME280;39838;59.938;30.642;2023-08-08T09:44:56;99793.88;;;24.37;57.61
48926;BME280;39838;59.938;30.642;2023-08-08T09:47:24;99788.81;;;24.47;57.39
48926;BME280;39838;59.938;30.642;2023-08-08T09:49:57;99796.88;;;24.58;56.55
48926;BME280;39838;59.938;30.642;2023-08-08T09:52:27;99790.09;;;24.54;56.71
48926;BME280;39838;59.938;30.642;2023-08-08T09:54:55;99799.09;;;24.51;56.89
48926;BME280;39838;59.938;30.642;2023-08-08T09:57:22;99799.03;;;24.66;56.90
48926;BME280;39838;59.938;30.642;2023-08-08T09:59:51;99794.75;;;24.76;55.96
48926;BME280;39838;59.938;30.642;2023-08-08T10:02:19;99801.22;;;24.85;55.49
48926;BME280;39838;59.938;30.642;2023-08-08T10:04:47;99797.28;;;25.03;55.44
48926;BME280;39838;59.938;30.642;2023-08-08T10:07:15;99803.97;;;25.21;55.47
48926;BME280;39838;59.938;30.642;2023-08-08T10:09:42;99801.59;;;25.29;55.77
48926;BME280;39838;59.938;30.642;2023-08-08T10:12:11;99806.09;;;25.29;55.58
48926;BME280;39838;59.938;30.642;2023-08-08T10:14:42;99813.94;;;25.30;54.58
48926;BME280;39838;59.938;30.642;2023-08-08T10:17:13;99818.94;;;25.35;53.44
48926;BME280;39838;59.938;30.642;2023-08-08T10:19:51;99807.75;;;25.43;52.42
48926;BME280;39838;59.938;30.642;2023-08-08T10:22:21;99819.22;;;25.43;52.24
48926;BME280;39838;59.938;30.642;2023-08-08T10:24:51;99814.44;;;25.48;51.83
48926;BME280;39838;59.938;30.642;2023-08-08T10:27:27;99814.50;;;25.47;49.92
48926;BME280;39838;59.938;30.642;2023-08-08T10:30:01;99819.22;;;25.43;49.43
48926;BME280;39838;59.938;30.642;2023-08-08T10:32:38;99822.75;;;25.31;49.23
48926;BME280;39838;59.938;30.642;2023-08-08T10:35:08;99826.72;;;25.13;49.58
48926;BME280;39838;59.938;30.642;2023-08-08T10:37:36;99819.72;;;25.12;48.93
48926;BME280;39838;59.938;30.642;2023-08-08T10:40:06;99836.94;;;25.06;49.32
48926;BME280;39838;59.938;30.642;2023-08-08T10:42:42;99833.84;;;25.12;49.45
48926;BME280;39838;59.938;30.642;2023-08-08T10:45:11;99819.38;;;25.03;48.75
48926;BME280;39838;59.938;30.642;2023-08-08T10:47:39;99839.50;;;25.20;48.16
48926;BME280;39838;59.938;30.642;2023-08-08T10:50:10;99829.84;;;25.07;47.48
48926;BME280;39838;59.938;30.642;2023-08-08T10:52:49;99851.91;;;25.20;47.36
48926;BME280;39838;59.938;30.642;2023-08-08T10:55:21;99854.13;;;25.26;47.27
48926;BME280;39838;59.938;30.642;2023-08-08T10:57:56;99849.91;;;25.23;48.15
48926;BME280;39838;59.938;30.642;2023-08-08T11:00:28;99863.84;;;25.27;47.64
48926;BME280;39838;59.938;30.642;2023-08-08T11:02:57;99862.44;;;25.21;47.46
48926;BME280;39838;59.938;30.642;2023-08-08T11:05:28;99861.06;;;25.16;47.35
48926;BME280;39838;59.938;30.642;2023-08-08T11:07:56;99867.34;;;25.15;47.99
48926;BME280;39838;59.938;30.642;2023-08-08T11:10:24;99885.09;;;25.14;48.20
48926;BME280;39838;59.938;30.642;2023-08-08T11:12:58;99883.41;;;25.13;48.14
48926;BME280;39838;59.938;30.642;2023-08-08T11:15:26;99886.16;;;25.12;48.22
48926;BME280;39838;59.938;30.642;2023-08-08T11:17:54;99888.81;;;25.12;48.15
48926;BME280;39838;59.938;30.642;2023-08-08T11:20:22;99893.41;;;25.10;47.67
48926;BME280;39838;59.938;30.642;2023-08-08T11:22:54;99902.59;;;24.91;47.56
48926;BME280;39838;59.938;30.642;2023-08-08T11:25:22;99900.69;;;24.81;48.26
48926;BME280;39838;59.938;30.642;2023-08-08T11:27:52;99901.53;;;24.81;48.22
48926;BME280;39838;59.938;30.642;2023-08-08T11:30:21;99901.88;;;24.89;47.76
48926;BME280;39838;59.938;30.642;2023-08-08T11:32:49;99907.91;;;24.91;46.83
48926;BME280;39838;59.938;30.642;2023-08-08T11:35:17;99914.63;;;24.97;46.98
48926;BME280;39838;59.938;30.642;2023-08-08T11:37:45;99918.38;;;25.07;47.42
48926;BME280;39838;59.938;30.642;2023-08-08T11:40:14;99927.22;;;25.20;47.20
48926;BME280;39838;59.938;30.642;2023-08-08T11:42:42;99925.41;;;25.34;46.95
48926;BME280;39838;59.938;30.642;2023-08-08T11:45:11;99930.66;;;25.46;46.31
48926;BME280;39838;59.938;30.642;2023-08-08T11:47:38;99928.84;;;25.59;46.24
48926;BME280;39838;59.938;30.642;2023-08-08T11:50:07;99916.50;;;25.58;45.44
48926;BME280;39838;59.938;30.642;2023-08-08T11:52:35;99914.28;;;25.40;44.85
48926;BME280;39838;59.938;30.642;2023-08-08T11:55:02;99922.50;;;25.24;45.65
48926;BME280;39838;59.938;30.642;2023-08-08T11:57:33;99933.69;;;25.29;46.12
48926;BME280;39838;59.938;30.642;2023-08-08T12:00:03;99925.91;;;25.39;45.62
48926;BME280;39838;59.938;30.642;2023-08-08T12:02:33;99924.41;;;25.47;46.09
48926;BME280;39838;59.938;30.642;2023-08-08T12:05:04;99930.09;;;25.67;45.42
48926;BME280;39838;59.938;30.642;2023-08-08T12:07:32;99935.66;;;25.76;45.47
48926;BME280;39838;59.938;30.642;2023-08-08T12:10:00;99935.50;;;25.91;44.72
48926;BME280;39838;59.938;30.642;2023-08-08T12:12:28;99932.97;;;25.89;44.27
48926;BME280;39838;59.938;30.642;2023-08-08T12:14:58;99938.28;;;25.89;43.87
48926;BME280;39838;59.938;30.642;2023-08-08T12:17:25;99932.97;;;25.89;43.94
48926;BME280;39838;59.938;30.642;2023-08-08T12:19:53;99936.38;;;25.78;43.52
48926;BME280;39838;59.938;30.642;2023-08-08T12:22:20;99936.81;;;25.85;43.59
48926;BME280;39838;59.938;30.642;2023-08-08T12:24:47;99937.41;;;26.01;43.75
48926;BME280;39838;59.938;30.642;2023-08-08T12:27:14;99949.50;;;26.05;43.80
48926;BME280;39838;59.938;30.642;2023-08-08T12:29:42;99951.00;;;26.09;43.93
48926;BME280;39838;59.938;30.642;2023-08-08T12:32:10;99950.59;;;26.27;43.56
48926;BME280;39838;59.938;30.642;2023-08-08T12:34:37;99945.81;;;26.56;43.02
48926;BME280;39838;59.938;30.642;2023-08-08T12:37:05;99941.28;;;26.80;42.80
48926;BME280;39838;59.938;30.642;2023-08-08T12:39:32;99951.34;;;26.88;42.42
48926;BME280;39838;59.938;30.642;2023-08-08T12:41:59;99958.03;;;26.93;42.18
48926;BME280;39838;59.938;30.642;2023-08-08T12:44:26;99953.34;;;27.08;42.10
48926;BME280;39838;59.938;30.642;2023-08-08T12:46:54;99952.28;;;27.22;41.77
48926;BME280;39838;59.938;30.642;2023-08-08T12:49:22;99956.31;;;27.16;41.69
48926;BME280;39838;59.938;30.642;2023-08-08T12:51:50;99958.66;;;26.97;41.68
48926;BME280;39838;59.938;30.642;2023-08-08T12:54:17;99957.50;;;26.88;41.73